createdAt,value
2023-11-05T00:02:36.215Z,97582.89
2023-11-05T00:05:24.920Z,97568.85
2023-11-05T00:08:28.865Z,97564.60
2023-11-05T00:11:47.179Z,97559.67
2023-11-05T00:14:55.533Z,97549.72
2023-11-05T00:18:01.204Z,97553.52
2023-11-05T00:20:52.704Z,97542.98
2023-11-05T00:23:34.805Z,97558.42
2023-11-05T00:26:34.219Z,97551.91
2023-11-05T00:29:16.689Z,97546.23
2023-11-05T00:35:27.999Z,97521.16
2023-11-05T00:41:07.887Z,97535.91
2023-11-05T00:44:03.174Z,97527.55
2023-11-05T00:46:56.138Z,97526.60
2023-11-05T00:49:41.092Z,97519.47
2023-11-05T00:52:28.941Z,97518.27
2023-11-05T00:55:39.497Z,97513.21
2023-11-05T00:58:49.468Z,97502.46
2023-11-05T01:05:04.924Z,97458.86
2023-11-05T01:08:03.524Z,97467.05
2023-11-05T01:10:41.026Z,97471.40
2023-11-05T01:13:21.379Z,97468.98
2023-11-05T01:16:37.309Z,97459.25
2023-11-05T01:19:19.456Z,97427.56
2023-11-05T01:22:03.850Z,97444.08
2023-11-05T01:25:09.305Z,97439.54
2023-11-05T01:28:04.689Z,97433.17
2023-11-05T01:31:07.637Z,97436.55
2023-11-05T01:34:05.744Z,97441.52
2023-11-05T01:36:51.674Z,97453.16
2023-11-05T01:43:23.997Z,97466.48
2023-11-05T01:46:31.895Z,97462.62
2023-11-05T01:49:42.638Z,97464.95
2023-11-05T01:52:38.312Z,97470.14
2023-11-05T01:55:19.670Z,97477.66
2023-11-05T01:57:58.493Z,97491.77
2023-11-05T02:01:07.830Z,97496.27
2023-11-05T02:04:38.900Z,97488.61
2023-11-05T02:07:24.429Z,97490.65
2023-11-05T02:10:11.179Z,97497.11
2023-11-05T02:13:10.531Z,97496.46
2023-11-05T02:16:42.002Z,97500.70
2023-11-05T02:19:32.096Z,97502.63
2023-11-05T02:22:33.127Z,97499.26
2023-11-05T02:26:10.030Z,97500.44
2023-11-05T02:32:32.703Z,97485.11
2023-11-05T02:35:49.765Z,97480.45
2023-11-05T02:39:00.467Z,97457.08
2023-11-05T02:41:47.758Z,97475.96
2023-11-05T02:44:25.876Z,97471.25
2023-11-05T02:47:16.797Z,97469.41
2023-11-05T02:50:23.045Z,97465.30
2023-11-05T02:53:07.104Z,97456.79
2023-11-05T02:56:07.528Z,97450.48
2023-11-05T02:59:24.125Z,97448.75
2023-11-05T03:02:17.202Z,97427.81
2023-11-05T03:05:22.252Z,97416.77
2023-11-05T03:08:39.843Z,97410.20
2023-11-05T03:11:19.802Z,97412.38
2023-11-05T03:14:29.673Z,97409.73
2023-11-05T03:17:14.989Z,97407.55
2023-11-05T03:20:07.178Z,97406.42
2023-11-05T03:22:59.187Z,97408.48
2023-11-05T03:28:58.921Z,97401.73
2023-11-05T03:31:35.527Z,97396.05
2023-11-05T03:34:27.355Z,97388.22
2023-11-05T03:40:33.886Z,97399.13
2023-11-05T03:43:26.802Z,97400.16
2023-11-05T03:46:14.423Z,97395.69
2023-11-05T03:48:56.272Z,97398.67
2023-11-05T03:51:28.497Z,97395.34
2023-11-05T03:54:28.729Z,97395.17
2023-11-05T03:57:19.135Z,97383.52
2023-11-05T04:00:15.819Z,97392.40
2023-11-05T04:03:51.004Z,97388.66
2023-11-05T04:06:42.647Z,97384.70
2023-11-05T04:09:29.016Z,97382.88
2023-11-05T04:12:22.921Z,97387.58
2023-11-05T04:15:32.565Z,97380.66
2023-11-05T04:18:23.724Z,97376.95
2023-11-05T04:21:05.771Z,97388.05
2023-11-05T04:26:52.820Z,97395.36
2023-11-05T04:33:16.561Z,97400.17
2023-11-05T04:35:55.149Z,97407.04
2023-11-05T04:38:40.858Z,97406.19
2023-11-05T04:41:52.081Z,97404.91
2023-11-05T04:44:45.050Z,97403.88
2023-11-05T04:47:38.349Z,97404.66
2023-11-05T04:50:26.530Z,97402.86
2023-11-05T04:53:15.645Z,97394.73
2023-11-05T04:56:20.860Z,97385.62
2023-11-05T04:59:40.744Z,97390.89
2023-11-05T05:02:40.826Z,97393.90
2023-11-05T05:05:17.135Z,97402.52
2023-11-05T05:08:13.546Z,97399.95
2023-11-05T05:11:13.552Z,97402.91
2023-11-05T05:17:13.514Z,97393.94
2023-11-05T05:19:52.779Z,97390.81
2023-11-05T05:22:34.733Z,97397.78
2023-11-05T05:25:28.085Z,97393.33
2023-11-05T05:28:24.698Z,97389.31
2023-11-05T05:31:21.191Z,97394.80
2023-11-05T05:34:01.689Z,97399.79
2023-11-05T05:36:51.662Z,97399.14
2023-11-05T05:39:40.635Z,97394.73
2023-11-05T05:42:16.797Z,97388.95
2023-11-05T05:44:54.584Z,97387.63
2023-11-05T05:47:33.220Z,97388.44
2023-11-05T05:50:23.893Z,97390.04
2023-11-05T05:53:10.474Z,97383.64
2023-11-05T05:56:13.513Z,97367.67
2023-11-05T05:58:58.458Z,97362.78
2023-11-05T06:01:49.894Z,97357.21
2023-11-05T06:04:24.362Z,97352.66
2023-11-05T06:07:04.222Z,97350.52
2023-11-05T06:09:46.013Z,97348.58
2023-11-05T06:12:22.079Z,97349.94
2023-11-05T06:15:11.340Z,97346.06
2023-11-05T06:17:49.362Z,97355.45
2023-11-05T06:20:47.799Z,97352.64
2023-11-05T06:23:42.588Z,97347.91
2023-11-05T06:26:23.047Z,97348.83
2023-11-05T06:29:00.446Z,97347.51
2023-11-05T06:31:56.467Z,97348.80
2023-11-05T06:42:06.420Z,97343.63
2023-11-05T06:44:49.982Z,97331.42
2023-11-05T06:47:54.746Z,97327.20
2023-11-05T06:50:33.571Z,97323.39
2023-11-05T06:53:11.693Z,97331.05
2023-11-05T06:56:25.217Z,97332.41
2023-11-05T06:59:04.246Z,97326.58
2023-11-05T07:02:08.454Z,97319.48
2023-11-05T07:04:47.052Z,97316.47
2023-11-05T07:07:44.365Z,97317.50
2023-11-05T07:10:28.312Z,97319.27
2023-11-05T07:13:19.679Z,97320.64
2023-11-05T07:16:29.842Z,97317.63
2023-11-05T07:19:29.581Z,97313.00
2023-11-05T07:22:28.804Z,97312.72
2023-11-05T07:25:43.998Z,97313.72
2023-11-05T07:31:28.838Z,97322.52
2023-11-05T07:36:57.831Z,97328.30
2023-11-05T07:42:38.702Z,97315.89
2023-11-05T07:45:14.465Z,97315.75
2023-11-05T07:48:09.139Z,97317.34
2023-11-05T07:51:09.533Z,97316.77
2023-11-05T07:53:46.876Z,97323.67
2023-11-05T07:56:26.488Z,97323.71
2023-11-05T07:59:02.985Z,97325.64
2023-11-05T08:01:50.334Z,97323.80
2023-11-05T08:04:27.754Z,97326.41
2023-11-05T08:07:16.332Z,97327.75
2023-11-05T08:10:07.115Z,97325.48
2023-11-05T08:12:40.115Z,97322.77
2023-11-05T08:15:24.198Z,97318.38
2023-11-05T08:18:15.246Z,97322.20
2023-11-05T08:21:36.385Z,97312.97
2023-11-05T08:24:10.769Z,97328.17
2023-11-05T08:27:10.992Z,97320.86
2023-11-05T08:29:55.758Z,97316.48
2023-11-05T08:32:46.727Z,97312.00
2023-11-05T08:35:46.386Z,97308.73
2023-11-05T08:38:28.927Z,97308.52
2023-11-05T08:41:02.679Z,97299.58
2023-11-05T08:43:45.639Z,97296.22
2023-11-05T08:46:24.457Z,97294.94
2023-11-05T08:49:11.532Z,97290.38
2023-11-05T08:51:46.551Z,97293.09
2023-11-05T08:54:16.377Z,97295.05
2023-11-05T08:56:49.662Z,97293.20
2023-11-05T08:59:24.376Z,97290.69
2023-11-05T09:02:13.826Z,97287.88
2023-11-05T09:04:50.718Z,97281.41
2023-11-05T09:07:30.471Z,97278.99
2023-11-05T09:10:04.230Z,97279.88
2023-11-05T09:12:37.602Z,97279.00
2023-11-05T09:15:17.705Z,97278.96
2023-11-05T09:18:03.237Z,97273.61
2023-11-05T09:20:56.556Z,97266.53
2023-11-05T09:23:33.519Z,97263.98
2023-11-05T09:26:36.790Z,97264.25
2023-11-05T09:29:17.449Z,97273.13
2023-11-05T09:31:51.151Z,97273.17
2023-11-05T09:34:47.809Z,97274.23
2023-11-05T09:37:28.406Z,97280.52
2023-11-05T09:40:09.649Z,97282.64
2023-11-05T09:43:11.893Z,97281.75
2023-11-05T09:46:10.310Z,97279.84
2023-11-05T09:48:55.326Z,97272.34
2023-11-05T09:51:35.631Z,97268.27
2023-11-05T09:54:15.136Z,97267.02
2023-11-05T09:56:50.518Z,97263.10
2023-11-05T09:59:36.055Z,97253.40
2023-11-05T10:02:21.657Z,97259.86
2023-11-05T10:05:07.271Z,97257.44
2023-11-05T10:08:06.871Z,97260.05
2023-11-05T10:11:00.989Z,97266.45
2023-11-05T10:13:33.797Z,97265.98
2023-11-05T10:16:21.182Z,97259.29
2023-11-05T10:19:17.233Z,97257.15
2023-11-05T10:22:21.797Z,97259.35
2023-11-05T10:24:55.526Z,97254.15
2023-11-05T10:27:38.307Z,97249.20
2023-11-05T10:30:35.209Z,97233.45
2023-11-05T10:33:19.741Z,97241.39
2023-11-05T10:36:01.934Z,97241.79
2023-11-05T10:38:51.107Z,97241.59
2023-11-05T10:41:38.679Z,97246.38
2023-11-05T10:44:18.788Z,97251.79
2023-11-05T10:47:09.021Z,97255.20
2023-11-05T10:50:07.251Z,97253.71
2023-11-05T10:53:03.795Z,97251.11
2023-11-05T10:56:02.749Z,97245.42
2023-11-05T10:59:19.516Z,97245.28
2023-11-05T11:05:15.733Z,97242.15
2023-11-05T11:07:55.466Z,97240.48
2023-11-05T11:11:08.718Z,97234.17
2023-11-05T11:14:01.350Z,97225.81
2023-11-05T11:17:03.289Z,97220.36
2023-11-05T11:19:49.785Z,97214.90
2023-11-05T11:22:45.351Z,97217.25
2023-11-05T11:25:31.595Z,97218.52
2023-11-05T11:28:40.702Z,97217.16
2023-11-05T11:31:19.048Z,97213.84
2023-11-05T11:34:00.240Z,97211.48
2023-11-05T11:36:55.486Z,97206.76
2023-11-05T11:39:50.198Z,97201.89
2023-11-05T11:42:27.735Z,97201.66
2023-11-05T11:45:15.849Z,97202.52
2023-11-05T11:48:05.973Z,97198.48
2023-11-05T11:51:12.191Z,97194.74
2023-11-05T11:54:11.650Z,97194.83
2023-11-05T11:57:08.332Z,97193.67
2023-11-05T11:59:57.758Z,97184.52
2023-11-05T12:03:15.407Z,97183.55
2023-11-05T12:05:58.079Z,97166.28
2023-11-05T12:08:48.044Z,97184.54
2023-11-05T12:11:45.884Z,97186.96
2023-11-05T12:14:35.987Z,97191.14
2023-11-05T12:17:18.553Z,97192.89
2023-11-05T12:20:10.424Z,97193.14
2023-11-05T12:23:03.645Z,97195.02
2023-11-05T12:25:38.542Z,97197.48
2023-11-05T12:28:49.088Z,97195.63
2023-11-05T12:31:54.494Z,97186.65
2023-11-05T12:34:40.770Z,97199.35
2023-11-05T12:37:24.063Z,97197.30
2023-11-05T12:40:16.381Z,97192.97
2023-11-05T12:43:05.329Z,97188.20
2023-11-05T12:45:43.378Z,97188.50
2023-11-05T12:48:36.442Z,97185.90
2023-11-05T12:51:10.593Z,97185.44
2023-11-05T12:53:56.587Z,97185.84
2023-11-05T12:56:33.529Z,97194.04
2023-11-05T12:59:31.023Z,97195.48
2023-11-05T13:02:10.349Z,97190.66
2023-11-05T13:05:03.420Z,97193.08
2023-11-05T13:07:49.901Z,97199.48
2023-11-05T13:10:46.675Z,97202.36
2023-11-05T13:13:23.703Z,97201.95
2023-11-05T13:16:12.755Z,97204.77
2023-11-05T13:19:17.883Z,97208.40
2023-11-05T13:22:14.744Z,97210.94
2023-11-05T13:24:57.078Z,97209.48
2023-11-05T13:27:51.522Z,97210.15
2023-11-05T13:30:39.834Z,97209.18
2023-11-05T13:33:49.438Z,97204.90
2023-11-05T13:39:53.552Z,97203.42
2023-11-05T13:42:38.036Z,97200.61
2023-11-05T13:45:17.490Z,97205.35
2023-11-05T13:51:48.434Z,97204.02
2023-11-05T13:55:03.432Z,97207.69
2023-11-05T13:58:00.904Z,97212.89
2023-11-05T14:01:22.902Z,97209.53
2023-11-05T14:04:04.998Z,97203.16
2023-11-05T14:07:02.182Z,97214.34
2023-11-05T14:10:04.549Z,97217.37
2023-11-05T14:12:43.716Z,97213.31
2023-11-05T14:15:14.678Z,97216.44
2023-11-05T14:17:54.189Z,97219.27
2023-11-05T14:20:42.049Z,97217.02
2023-11-05T14:23:27.797Z,97217.77
2023-11-05T14:26:07.554Z,97222.30
2023-11-05T14:28:47.308Z,97228.73
2023-11-05T14:31:43.504Z,97233.74
2023-11-05T14:34:42.797Z,97243.61
2023-11-05T14:37:38.794Z,97252.92
2023-11-05T14:40:19.536Z,97254.67
2023-11-05T14:43:13.810Z,97256.48
2023-11-05T14:46:02.319Z,97256.14
2023-11-05T14:48:52.718Z,97261.70
2023-11-05T14:51:36.394Z,97270.65
2023-11-05T14:54:24.253Z,97275.88
2023-11-05T14:57:40.912Z,97277.19
2023-11-05T15:00:42.161Z,97275.59
2023-11-05T15:04:07.691Z,97275.07
2023-11-05T15:07:01.630Z,97275.50
2023-11-05T15:10:00.856Z,97280.17
2023-11-05T15:13:01.119Z,97290.23
2023-11-05T15:15:59.495Z,97299.27
2023-11-05T15:19:02.644Z,97302.48
2023-11-05T15:22:13.006Z,97305.85
2023-11-05T15:25:00.468Z,97308.52
2023-11-05T15:28:01.932Z,97307.39
2023-11-05T15:31:19.387Z,97309.42
2023-11-05T15:34:29.135Z,97311.24
2023-11-05T15:37:18.193Z,97313.27
2023-11-05T15:40:17.722Z,97315.66
2023-11-05T15:43:31.325Z,97318.16
2023-11-05T15:46:46.265Z,97324.64
2023-11-05T15:49:53.647Z,97332.36
2023-11-05T16:00:23.573Z,97333.27
2023-11-05T16:03:44.622Z,97334.31
2023-11-05T16:06:47.481Z,97336.73
2023-11-05T16:09:59.828Z,97336.55
2023-11-05T16:13:26.280Z,97338.16
2023-11-05T16:16:06.460Z,97338.83
2023-11-05T16:18:49.176Z,97337.64
2023-11-05T16:21:26.815Z,97339.96
2023-11-05T16:23:59.428Z,97345.50
2023-11-05T16:26:37.961Z,97346.88
2023-11-05T16:29:14.496Z,97348.09
2023-11-05T16:31:52.170Z,97344.10
2023-11-05T16:35:04.697Z,97349.39
2023-11-05T16:37:53.598Z,97350.63
2023-11-05T16:40:53.927Z,97351.17
2023-11-05T16:47:01.998Z,97358.27
2023-11-05T16:49:42.308Z,97361.00
2023-11-05T16:52:38.043Z,97364.40
2023-11-05T16:55:38.350Z,97367.59
2023-11-05T16:58:54.360Z,97370.99
2023-11-05T17:02:03.539Z,97375.34
2023-11-05T17:04:55.432Z,97381.10
2023-11-05T17:07:51.975Z,97380.27
2023-11-05T17:10:35.778Z,97386.11
2023-11-05T17:13:27.078Z,97395.09
2023-11-05T17:16:20.367Z,97404.05
2023-11-05T17:19:05.773Z,97412.87
2023-11-05T17:21:54.484Z,97414.17
2023-11-05T17:24:52.377Z,97418.55
2023-11-05T17:27:31.255Z,97423.88
2023-11-05T17:31:02.096Z,97423.77
2023-11-05T17:33:53.993Z,97422.84
2023-11-05T17:36:45.228Z,97419.38
2023-11-05T17:39:27.279Z,97418.08
2023-11-05T17:42:36.884Z,97422.52
2023-11-05T17:45:20.082Z,97422.15
2023-11-05T17:48:02.833Z,97422.20
2023-11-05T17:50:46.072Z,97425.38
2023-11-05T17:53:21.252Z,97431.40
2023-11-05T17:56:05.689Z,97436.58
2023-11-05T17:58:45.146Z,97442.83
2023-11-05T18:01:22.141Z,97442.27
2023-11-05T18:04:02.341Z,97456.19
2023-11-05T18:06:40.657Z,97457.88
2023-11-05T18:09:19.861Z,97455.75
2023-11-05T18:11:56.853Z,97463.52
2023-11-05T18:14:48.504Z,97470.88
2023-11-05T18:17:37.185Z,97473.73
2023-11-05T18:20:13.532Z,97480.70
2023-11-05T18:22:53.460Z,97482.16
2023-11-05T18:25:41.925Z,97483.80
2023-11-05T18:28:33.004Z,97490.34
2023-11-05T18:31:28.075Z,97496.76
2023-11-05T18:34:39.473Z,97498.66
2023-11-05T18:37:43.197Z,97502.69
2023-11-05T18:41:24.945Z,97507.09
2023-11-05T18:44:25.020Z,97508.76
2023-11-05T18:47:47.297Z,97509.39
2023-11-05T18:51:16.323Z,97509.95
2023-11-05T18:54:39.557Z,97509.73
2023-11-05T18:57:39.569Z,97523.67
2023-11-05T19:00:44.624Z,97534.61
2023-11-05T19:04:05.359Z,97535.61
2023-11-05T19:14:37.255Z,97528.34
2023-11-05T19:18:26.186Z,97544.02
2023-11-05T19:20:57.293Z,97548.15
2023-11-05T19:24:13.154Z,97554.55
2023-11-05T19:27:38.919Z,97559.10
2023-11-05T19:31:07.861Z,97559.73
2023-11-05T19:34:32.467Z,97568.86
2023-11-05T19:37:51.306Z,97572.00
2023-11-05T19:44:34.470Z,97578.77
2023-11-05T19:51:46.614Z,97589.27
2023-11-05T19:54:47.173Z,97596.71
2023-11-05T19:58:04.238Z,97608.89
2023-11-05T20:01:09.974Z,97616.69
2023-11-05T20:04:14.171Z,97615.45
2023-11-05T20:07:04.447Z,97618.16
2023-11-05T20:09:56.780Z,97621.58
2023-11-05T20:13:06.420Z,97623.48
2023-11-05T20:16:11.686Z,97627.58
2023-11-05T20:19:29.219Z,97629.89
2023-11-05T20:23:00.382Z,97633.45
2023-11-05T20:26:52.655Z,97638.31
2023-11-05T20:30:49.879Z,97652.23
2023-11-05T20:34:48.961Z,97650.45
2023-11-05T20:37:41.598Z,97647.38
2023-11-05T20:40:22.022Z,97651.05
2023-11-05T20:43:05.688Z,97661.66
2023-11-05T20:45:46.936Z,97664.61
2023-11-05T20:52:11.540Z,97669.11
2023-11-05T20:55:07.355Z,97675.50
2023-11-05T20:58:17.868Z,97677.69
2023-11-05T21:01:16.051Z,97684.50
2023-11-05T21:04:25.125Z,97685.21
2023-11-05T21:07:20.993Z,97690.34
2023-11-05T21:10:23.843Z,97694.04
2023-11-05T21:13:10.025Z,97697.83
2023-11-05T21:16:30.735Z,97699.11
2023-11-05T21:19:47.119Z,97708.91
2023-11-05T21:22:38.562Z,97708.73
2023-11-05T21:25:29.938Z,97712.52
2023-11-05T21:28:24.217Z,97717.06
2023-11-05T21:39:43.558Z,97733.39
2023-11-05T21:42:59.885Z,97733.55
2023-11-05T21:46:17.583Z,97729.10
2023-11-05T21:49:18.709Z,97750.02
2023-11-05T21:52:57.301Z,97753.30
2023-11-05T21:56:29.426Z,97762.86
2023-11-05T21:59:20.294Z,97772.90
2023-11-05T22:02:25.894Z,97775.84
2023-11-05T22:05:38.752Z,97781.39
2023-11-05T22:09:07.859Z,97791.09
2023-11-05T22:12:09.738Z,97792.05
2023-11-05T22:15:43.284Z,97804.59
2023-11-05T22:18:42.818Z,97806.94
2023-11-05T22:21:38.469Z,97813.94
2023-11-05T22:24:25.454Z,97818.90
2023-11-05T22:27:22.993Z,97824.23
2023-11-05T22:30:01.168Z,97824.18
2023-11-05T22:35:54.092Z,97831.89
2023-11-05T22:38:35.081Z,97834.67
2023-11-05T22:41:12.834Z,97839.33
2023-11-05T22:44:19.410Z,97837.29
2023-11-05T22:47:41.557Z,97836.59
2023-11-05T22:50:25.316Z,97836.78
2023-11-05T22:53:35.481Z,97841.71
2023-11-05T22:56:21.152Z,97849.02
2023-11-05T22:59:30.537Z,97860.63
2023-11-05T23:02:18.206Z,97865.53
2023-11-05T23:05:22.306Z,97882.17
2023-11-05T23:08:26.604Z,97887.65
2023-11-05T23:11:20.709Z,97891.50
2023-11-05T23:14:06.241Z,97893.02
2023-11-05T23:17:01.988Z,97893.22
2023-11-05T23:19:53.003Z,97894.64
2023-11-05T23:22:45.835Z,97901.94
2023-11-05T23:26:04.348Z,97901.99
2023-11-05T23:32:48.734Z,97913.83
2023-11-05T23:35:37.810Z,97919.35
2023-11-05T23:38:29.053Z,97925.17
2023-11-05T23:41:43.191Z,97926.55
2023-11-05T23:44:22.959Z,97931.89
2023-11-05T23:47:15.446Z,97932.48
2023-11-05T23:50:11.674Z,97935.77
2023-11-05T23:52:51.784Z,97940.70
2023-11-05T23:55:51.310Z,97941.05
2023-11-05T23:58:29.226Z,97943.98
